Time;durP1;ratioP1;P1;durP2;ratioP2;P2;SDS_P1;SDS_P2;PMS_P1;PMS_P2;Temp;Humidity;BMP_temperature;BMP_pressure;BME280_temperature;BME280_humidity;BME280_pressure;Samples;Min_cycle;Max_cycle;Signal;HPM_P1;HPM_P2
2022/11/16 00:00:19;;;;;;;;;;;12.30;99.90;;;;;;5071330;28;19959;-70
2022/11/16 00:02:47;;;;;;;;;;;12.30;99.90;;;;;;5071327;28;19912;-70
2022/11/16 00:05:13;;;;;;;;;;;12.30;99.90;;;;;;5070976;28;19989;-70
2022/11/16 00:07:38;;;;;;;;;;;12.30;99.90;;;;;;5071138;28;19917;-70
2022/11/16 00:10:05;;;;;;;;;;;12.30;99.90;;;;;;5071190;28;20008;-70
2022/11/16 00:12:30;;;;;;;;;;;12.30;99.90;;;;;;5070987;28;19920;-70
2022/11/16 00:14:56;;;;;;;;;;;12.30;99.90;;;;;;5071137;28;19920;-70
2022/11/16 00:17:22;;;;;;;;;;;12.30;99.90;;;;;;5071066;28;20292;-70
2022/11/16 00:19:47;;;;;;;;;;;12.30;99.90;;;;;;5071097;28;19944;-70
2022/11/16 00:22:13;;;;;;;;;;;12.40;99.90;;;;;;5071148;28;19912;-71
2022/11/16 00:24:39;;;;;;;;;;;12.30;99.90;;;;;;5071119;28;19917;-70
2022/11/16 00:27:04;;;;;;;;;;;12.30;99.90;;;;;;5070934;28;19969;-70
2022/11/16 00:29:30;;;;;;;;;;;12.30;99.90;;;;;;5070920;28;20395;-70
2022/11/16 00:31:56;;;;;;;;;;;12.30;99.90;;;;;;5052974;28;20357;-70
2022/11/16 00:34:23;;;;;;;;;;;12.30;99.90;;;;;;5072568;28;19913;-70
2022/11/16 00:36:48;;;;;;;;;;;12.30;99.90;;;;;;5074894;28;19913;-70
2022/11/16 00:39:15;;;;;;;;;;;12.30;99.90;;;;;;5056922;28;19919;-70
2022/11/16 00:41:41;;;;;;;;;;;12.30;99.90;;;;;;5074910;28;19912;-70
2022/11/16 00:44:08;;;;;;;;;;;12.30;99.90;;;;;;5056948;28;20002;-70
2022/11/16 00:46:33;;;;;;;;;;;12.30;99.90;;;;;;5074630;28;20365;-70
2022/11/16 00:49:00;;;;;;;;;;;12.30;99.90;;;;;;5056559;28;19959;-70
2022/11/16 00:51:26;;;;;;;;;;;12.30;99.90;;;;;;5056808;28;19956;-70
2022/11/16 00:53:52;;;;;;;;;;;12.30;99.90;;;;;;5056771;28;19956;-70
2022/11/16 00:56:18;;;;;;;;;;;12.30;99.90;;;;;;5056527;28;19913;-71
2022/11/16 00:58:44;;;;;;;;;;;12.30;99.90;;;;;;5074571;28;19940;-70
2022/11/16 01:01:11;;;;;;;;;;;12.30;99.90;;;;;;5056535;28;19912;-70
2022/11/16 01:03:37;;;;;;;;;;;12.30;99.90;;;;;;5056554;28;19920;-70
2022/11/16 01:06:04;;;;;;;;;;;12.30;99.90;;;;;;5074579;28;19916;-70
2022/11/16 01:08:30;;;;;;;;;;;12.30;99.90;;;;;;5056269;28;19916;-73
2022/11/16 01:12:07;;;;;;;;;;;12.30;99.90;;;;;;5074161;28;19912;-71
2022/11/16 01:13:41;;;;;;;;;;;12.30;99.90;;;;;;5074244;28;19917;-71
2022/11/16 01:16:07;;;;;;;;;;;12.30;99.90;;;;;;5074336;28;19935;-70
2022/11/16 01:18:33;;;;;;;;;;;12.30;99.90;;;;;;5073985;28;19913;-71
2022/11/16 01:20:59;;;;;;;;;;;12.30;99.90;;;;;;5074218;28;19938;-71
2022/11/16 01:23:24;;;;;;;;;;;12.30;99.90;;;;;;5056369;28;19987;-72
2022/11/16 01:25:57;;;;;;;;;;;12.30;99.90;;;;;;5074297;28;19916;-70
2022/11/16 01:28:23;;;;;;;;;;;12.30;99.90;;;;;;5056000;28;19919;-70
2022/11/16 01:30:51;;;;;;;;;;;12.30;99.90;;;;;;5056061;28;19920;-70
2022/11/16 01:33:16;;;;;;;;;;;12.30;99.90;;;;;;5056134;28;19927;-70
2022/11/16 01:35:42;;;;;;;;;;;12.30;99.90;;;;;;5074055;28;20327;-70
2022/11/16 01:38:09;;;;;;;;;;;12.30;99.90;;;;;;5055805;28;19969;-71
2022/11/16 01:40:35;;;;;;;;;;;12.30;99.90;;;;;;5073946;28;19916;-71
2022/11/16 01:43:01;;;;;;;;;;;12.30;99.90;;;;;;5056100;28;20284;-71
2022/11/16 01:45:37;;;;;;;;;;;12.30;99.90;;;;;;5055566;28;19946;-71
2022/11/16 01:48:06;;;;;;;;;;;12.30;99.90;;;;;;5055711;28;19919;-70
2022/11/16 01:50:33;;;;;;;;;;;12.20;99.90;;;;;;5055790;28;19912;-70
2022/11/16 01:53:00;;;;;;;;;;;12.20;99.90;;;;;;5055870;28;19916;-70
2022/11/16 01:55:32;;;;;;;;;;;12.30;99.90;;;;;;5055747;28;19923;-70
2022/11/16 01:58:14;;;;;;;;;;;12.20;99.90;;;;;;5055623;28;20292;-70
2022/11/16 02:00:40;;;;;;;;;;;12.20;99.90;;;;;;5055680;28;19935;-73
2022/11/16 02:03:26;;;;;;;;;;;12.20;99.90;;;;;;5056221;28;19948;-71
2022/11/16 02:06:12;;;;;;;;;;;12.20;99.90;;;;;;5055987;28;19965;-71
2022/11/16 02:11:40;;;;;;;;;;;12.20;99.90;;;;;;5055565;28;20004;-72
2022/11/16 02:14:14;;;;;;;;;;;12.20;99.90;;;;;;5055501;28;19916;-70
2022/11/16 02:16:50;;;;;;;;;;;12.20;99.90;;;;;;5055340;28;19985;-70
2022/11/16 02:19:22;;;;;;;;;;;12.20;99.90;;;;;;5039221;28;20339;-70
2022/11/16 02:21:58;;;;;;;;;;;12.30;99.90;;;;;;5055373;28;20450;-70
2022/11/16 02:24:38;;;;;;;;;;;12.20;99.90;;;;;;5073226;28;19966;-70
2022/11/16 02:27:23;;;;;;;;;;;12.20;99.90;;;;;;5055258;28;19918;-70
2022/11/16 02:29:50;;;;;;;;;;;12.20;99.90;;;;;;5055133;28;20010;-70
2022/11/16 02:32:16;;;;;;;;;;;12.20;99.90;;;;;;5054948;28;19916;-70
2022/11/16 02:34:51;;;;;;;;;;;12.20;99.90;;;;;;5072942;28;19912;-70
2022/11/16 02:37:19;;;;;;;;;;;12.20;99.90;;;;;;5072710;28;19959;-71
2022/11/16 02:39:46;;;;;;;;;;;12.20;99.90;;;;;;5054982;28;19912;-70
2022/11/16 02:42:16;;;;;;;;;;;12.20;99.90;;;;;;5054954;28;20296;-70
2022/11/16 02:44:43;;;;;;;;;;;12.20;99.90;;;;;;5055194;28;19963;-70
2022/11/16 02:47:12;;;;;;;;;;;12.20;99.90;;;;;;5051292;28;19917;-70
2022/11/16 02:49:41;;;;;;;;;;;12.20;99.90;;;;;;5051358;28;19913;-70
2022/11/16 02:52:09;;;;;;;;;;;12.20;99.90;;;;;;5051418;28;19932;-70
2022/11/16 02:54:35;;;;;;;;;;;12.20;99.90;;;;;;5052856;28;20387;-70
2022/11/16 02:57:00;;;;;;;;;;;12.20;99.90;;;;;;5050163;28;19912;-70
2022/11/16 02:59:59;;;;;;;;;;;12.20;99.90;;;;;;5050884;28;19913;-70
2022/11/16 03:02:34;;;;;;;;;;;12.20;99.90;;;;;;5029703;28;20463;-70
2022/11/16 03:05:04;;;;;;;;;;;12.20;99.90;;;;;;5050882;28;19924;-70
2022/11/16 03:07:58;;;;;;;;;;;12.20;99.90;;;;;;5050777;28;19913;-69
2022/11/16 03:13:09;;;;;;;;;;;12.20;99.90;;;;;;5050759;28;19917;-70
2022/11/16 03:15:37;;;;;;;;;;;12.10;99.90;;;;;;5050852;28;19920;-70
2022/11/16 03:18:04;;;;;;;;;;;12.20;99.90;;;;;;5050478;28;19913;-70
2022/11/16 03:20:31;;;;;;;;;;;12.10;99.90;;;;;;5050509;28;19916;-70
2022/11/16 03:23:02;;;;;;;;;;;12.10;99.90;;;;;;5051885;28;20439;-70
2022/11/16 03:25:34;;;;;;;;;;;12.10;99.90;;;;;;5050532;28;19970;-70
2022/11/16 03:28:02;;;;;;;;;;;12.10;99.90;;;;;;5050471;28;19913;-70
2022/11/16 03:30:31;;;;;;;;;;;12.10;99.90;;;;;;5050262;28;19917;-70
2022/11/16 03:33:04;;;;;;;;;;;12.20;99.90;;;;;;5050512;28;19916;-70
2022/11/16 03:35:35;;;;;;;;;;;12.10;99.90;;;;;;5050502;28;19912;-70
2022/11/16 03:38:02;;;;;;;;;;;12.20;99.90;;;;;;5050224;28;19913;-70
2022/11/16 03:40:30;;;;;;;;;;;12.20;99.90;;;;;;5051483;28;19978;-70
2022/11/16 03:42:58;;;;;;;;;;;12.20;99.90;;;;;;5050371;28;19913;-70
2022/11/16 03:45:24;;;;;;;;;;;12.20;99.90;;;;;;5050351;28;19912;-70
2022/11/16 03:47:51;;;;;;;;;;;12.20;99.90;;;;;;5050026;28;19913;-70
2022/11/16 03:50:18;;;;;;;;;;;12.10;99.90;;;;;;5049968;28;19916;-70
2022/11/16 03:52:44;;;;;;;;;;;12.20;99.90;;;;;;5050155;28;19938;-70
2022/11/16 03:55:11;;;;;;;;;;;12.20;99.90;;;;;;5050165;28;20003;-70
2022/11/16 03:57:37;;;;;;;;;;;12.20;99.90;;;;;;5050025;28;19916;-70
2022/11/16 04:00:04;;;;;;;;;;;12.20;99.90;;;;;;5049910;28;20266;-70
2022/11/16 04:02:38;;;;;;;;;;;12.20;99.90;;;;;;5051254;28;19959;-70
2022/11/16 04:24:29;;;;;;;;;;;12.20;99.90;;;;;;5029954;28;20366;-68
2022/11/16 04:29:41;;;;;;;;;;;12.20;99.90;;;;;;5029670;28;19917;-68
2022/11/16 04:37:48;;;;;;;;;;;12.20;99.90;;;;;;5031075;28;19920;-68
2022/11/16 04:40:19;;;;;;;;;;;12.10;99.90;;;;;;5030319;28;19914;-68
2022/11/16 04:42:50;;;;;;;;;;;12.10;99.90;;;;;;5029870;28;19979;-69
2022/11/16 04:48:01;;;;;;;;;;;12.10;99.90;;;;;;5029745;28;19936;-69
2022/11/16 04:50:30;;;;;;;;;;;12.10;99.90;;;;;;5029862;28;19921;-68
2022/11/16 04:52:58;;;;;;;;;;;12.10;99.90;;;;;;5031156;28;19936;-68
2022/11/16 04:55:24;;;;;;;;;;;12.10;99.90;;;;;;5029855;28;19996;-68
2022/11/16 04:57:51;;;;;;;;;;;12.10;99.90;;;;;;5029752;28;19917;-68
2022/11/16 05:00:19;;;;;;;;;;;12.20;99.90;;;;;;5029595;28;19913;-68
2022/11/16 05:02:45;;;;;;;;;;;12.10;99.90;;;;;;5046310;28;20288;-69
2022/11/16 05:05:11;;;;;;;;;;;12.10;99.90;;;;;;5031010;28;19996;-68
2022/11/16 05:07:40;;;;;;;;;;;12.10;99.90;;;;;;5029732;28;20374;-69
2022/11/16 05:10:12;;;;;;;;;;;12.10;99.90;;;;;;5030091;28;19913;-68
2022/11/16 05:12:39;;;;;;;;;;;12.10;99.90;;;;;;5030447;28;20008;-68
2022/11/16 05:15:07;;;;;;;;;;;12.10;99.90;;;;;;5030253;28;19952;-68
2022/11/16 05:17:33;;;;;;;;;;;12.10;99.90;;;;;;5031359;28;19917;-69
2022/11/16 05:22:53;;;;;;;;;;;12.10;99.90;;;;;;5033949;28;20003;-68
2022/11/16 05:25:19;;;;;;;;;;;12.10;99.90;;;;;;5033271;28;19913;-68
2022/11/16 05:27:46;;;;;;;;;;;12.10;99.90;;;;;;5032788;28;19917;-67
2022/11/16 05:30:12;;;;;;;;;;;12.10;99.90;;;;;;5030919;28;19917;-67
2022/11/16 05:32:38;;;;;;;;;;;12.10;99.90;;;;;;5031702;28;19921;-68
2022/11/16 05:35:05;;;;;;;;;;;12.10;99.90;;;;;;5036281;28;19914;-70
2022/11/16 05:37:31;;;;;;;;;;;12.10;99.90;;;;;;5020095;28;19921;-71
2022/11/16 05:39:57;;;;;;;;;;;12.20;99.90;;;;;;5015501;28;19917;-68
2022/11/16 05:42:33;;;;;;;;;;;12.20;99.90;;;;;;5048721;28;20293;-68
2022/11/16 05:45:00;;;;;;;;;;;12.20;99.90;;;;;;5031604;28;20422;-69
2022/11/16 05:47:26;;;;;;;;;;;12.20;99.90;;;;;;5048102;28;19921;-69
2022/11/16 05:49:52;;;;;;;;;;;12.20;99.90;;;;;;5031138;28;19914;-69
2022/11/16 05:52:18;;;;;;;;;;;12.20;99.90;;;;;;5024622;28;20041;-69
2022/11/16 05:54:44;;;;;;;;;;;12.20;99.90;;;;;;5011114;28;19913;-69
2022/11/16 05:57:10;;;;;;;;;;;12.20;99.90;;;;;;5010738;28;20052;-70
2022/11/16 05:59:37;;;;;;;;;;;12.20;99.90;;;;;;5010897;28;20051;-69
2022/11/16 06:02:03;;;;;;;;;;;12.10;99.90;;;;;;5011017;28;19982;-69
2022/11/16 06:04:31;;;;;;;;;;;12.10;99.90;;;;;;5027526;28;19913;-69
2022/11/16 06:06:58;;;;;;;;;;;12.10;99.90;;;;;;4994164;28;19909;-69
2022/11/16 06:09:28;;;;;;;;;;;12.20;99.90;;;;;;5009908;28;20009;-67
2022/11/16 06:11:58;;;;;;;;;;;12.10;99.90;;;;;;5010044;28;20028;-70
2022/11/16 06:14:24;;;;;;;;;;;12.10;99.90;;;;;;5011066;28;20413;-69
2022/11/16 06:16:49;;;;;;;;;;;12.10;99.90;;;;;;5010602;28;19949;-69
2022/11/16 06:19:15;;;;;;;;;;;12.10;99.90;;;;;;5010985;28;20020;-69
2022/11/16 06:21:41;;;;;;;;;;;12.10;99.90;;;;;;5011748;28;19921;-69
2022/11/16 06:24:13;;;;;;;;;;;12.10;99.90;;;;;;5010676;28;20386;-70
2022/11/16 06:26:40;;;;;;;;;;;12.10;99.90;;;;;;5010477;28;19961;-69
2022/11/16 06:29:06;;;;;;;;;;;12.10;99.90;;;;;;5027426;28;20453;-69
2022/11/16 06:31:33;;;;;;;;;;;12.10;99.90;;;;;;5010473;28;19913;-69
2022/11/16 06:34:01;;;;;;;;;;;12.10;99.90;;;;;;5010462;28;19996;-69
2022/11/16 06:36:28;;;;;;;;;;;12.10;99.90;;;;;;5009811;28;20234;-69
2022/11/16 06:38:57;;;;;;;;;;;12.10;99.90;;;;;;5010401;28;19967;-69
2022/11/16 06:41:23;;;;;;;;;;;12.10;99.90;;;;;;5026876;28;19917;-69
2022/11/16 06:43:50;;;;;;;;;;;12.10;99.90;;;;;;5010614;28;19925;-70
2022/11/16 06:46:18;;;;;;;;;;;12.00;99.90;;;;;;5010320;28;19959;-69
2022/11/16 06:48:46;;;;;;;;;;;12.00;99.90;;;;;;5010306;28;19918;-70
2022/11/16 06:51:13;;;;;;;;;;;12.10;99.90;;;;;;4993996;28;20238;-70
2022/11/16 06:53:38;;;;;;;;;;;12.00;99.90;;;;;;5010628;28;19917;-69
2022/11/16 06:56:05;;;;;;;;;;;12.00;99.90;;;;;;5010465;28;19914;-69
2022/11/16 06:58:36;;;;;;;;;;;12.00;99.90;;;;;;5010101;28;19941;-70
2022/11/16 07:01:07;;;;;;;;;;;12.00;99.90;;;;;;5010099;28;19914;-70
2022/11/16 07:03:36;;;;;;;;;;;12.00;99.90;;;;;;5010203;28;19914;-69
2022/11/16 07:06:10;;;;;;;;;;;12.00;99.90;;;;;;5009313;28;20020;-70
2022/11/16 07:08:38;;;;;;;;;;;12.00;99.90;;;;;;5009867;28;19917;-70
2022/11/16 07:11:04;;;;;;;;;;;12.00;99.90;;;;;;5011253;28;20337;-69
2022/11/16 07:13:32;;;;;;;;;;;12.00;99.90;;;;;;5011300;28;19922;-69
2022/11/16 07:16:05;;;;;;;;;;;12.00;99.90;;;;;;5009554;28;19914;-69
2022/11/16 07:18:35;;;;;;;;;;;12.00;99.90;;;;;;5010908;28;20008;-69
2022/11/16 07:21:12;;;;;;;;;;;12.00;99.90;;;;;;5010672;28;19918;-66
2022/11/16 07:23:38;;;;;;;;;;;12.00;99.90;;;;;;5009928;28;20416;-69
2022/11/16 07:26:06;;;;;;;;;;;12.00;99.90;;;;;;5011019;28;19913;-68
2022/11/16 07:28:41;;;;;;;;;;;12.00;99.90;;;;;;5009545;28;19999;-69
2022/11/16 07:31:08;;;;;;;;;;;12.00;99.90;;;;;;5009554;28;19952;-70
2022/11/16 07:33:34;;;;;;;;;;;12.00;99.90;;;;;;5009665;28;19925;-69
2022/11/16 07:36:19;;;;;;;;;;;12.00;99.90;;;;;;5010713;28;19936;-69
2022/11/16 07:38:45;;;;;;;;;;;12.00;99.90;;;;;;5009587;28;19913;-69
2022/11/16 07:41:16;;;;;;;;;;;12.00;99.90;;;;;;5009434;28;19914;-69
2022/11/16 07:44:09;;;;;;;;;;;12.00;99.90;;;;;;5009035;28;19960;-69
2022/11/16 07:46:35;;;;;;;;;;;11.90;99.90;;;;;;5008960;28;19914;-69
2022/11/16 07:49:03;;;;;;;;;;;11.90;99.90;;;;;;5009201;28;20024;-69
2022/11/16 07:51:49;;;;;;;;;;;12.00;99.90;;;;;;5008638;28;19935;-69
2022/11/16 07:54:29;;;;;;;;;;;11.90;99.90;;;;;;5009280;28;19917;-69
2022/11/16 07:56:55;;;;;;;;;;;11.90;99.90;;;;;;5009082;28;19913;-69
2022/11/16 07:59:21;;;;;;;;;;;11.90;99.90;;;;;;5009568;28;19968;-69
2022/11/16 08:01:48;;;;;;;;;;;11.90;99.90;;;;;;5009356;28;19921;-69
2022/11/16 08:04:16;;;;;;;;;;;11.90;99.90;;;;;;5009494;28;19914;-69
2022/11/16 08:06:42;;;;;;;;;;;11.90;99.90;;;;;;5008469;28;20021;-69
2022/11/16 08:09:08;;;;;;;;;;;11.90;99.90;;;;;;5010748;28;20393;-69
2022/11/16 08:11:35;;;;;;;;;;;11.90;99.90;;;;;;5009257;28;19936;-69
2022/11/16 08:14:00;;;;;;;;;;;11.80;99.90;;;;;;4992996;28;20318;-69
2022/11/16 08:16:27;;;;;;;;;;;11.80;99.90;;;;;;5009048;28;20043;-69
2022/11/16 08:19:02;;;;;;;;;;;11.80;99.90;;;;;;5009347;28;20477;-69
2022/11/16 08:21:28;;;;;;;;;;;11.80;99.90;;;;;;4992710;28;20009;-69
2022/11/16 08:23:53;;;;;;;;;;;11.80;99.90;;;;;;5009290;28;20008;-70
2022/11/16 08:26:20;;;;;;;;;;;11.80;99.90;;;;;;5009060;28;19914;-69
2022/11/16 08:28:54;;;;;;;;;;;11.80;99.90;;;;;;5009162;28;19936;-69
2022/11/16 08:31:26;;;;;;;;;;;11.80;99.90;;;;;;5009251;28;20282;-69
2022/11/16 08:33:58;;;;;;;;;;;11.80;99.90;;;;;;5009176;28;19921;-69
2022/11/16 08:36:24;;;;;;;;;;;11.80;99.90;;;;;;5024969;28;19917;-69
2022/11/16 08:38:52;;;;;;;;;;;11.80;99.90;;;;;;5008565;28;19910;-69
2022/11/16 08:41:20;;;;;;;;;;;11.80;99.90;;;;;;5011687;28;19913;-69
2022/11/16 08:43:49;;;;;;;;;;;11.80;99.90;;;;;;4992867;28;19969;-68
2022/11/16 08:46:15;;;;;;;;;;;11.80;99.90;;;;;;4992626;28;19968;-69
2022/11/16 08:48:45;;;;;;;;;;;11.80;99.90;;;;;;5009014;28;19913;-68
2022/11/16 08:51:12;;;;;;;;;;;11.90;99.90;;;;;;5017508;28;19995;-68
2022/11/16 08:53:41;;;;;;;;;;;12.20;99.90;;;;;;5028270;28;19917;-68
2022/11/16 08:56:08;;;;;;;;;;;12.30;99.90;;;;;;5014835;28;19928;-68
2022/11/16 08:58:36;;;;;;;;;;;12.40;99.90;;;;;;5032229;28;20004;-69
2022/11/16 09:01:09;;;;;;;;;;;12.50;99.90;;;;;;5032132;28;20424;-70
2022/11/16 09:03:36;;;;;;;;;;;12.70;99.90;;;;;;5031926;28;19917;-69
2022/11/16 09:06:01;;;;;;;;;;;12.70;99.90;;;;;;5032566;28;20043;-69
2022/11/16 09:08:27;;;;;;;;;;;12.60;99.90;;;;;;5033045;28;20000;-69
2022/11/16 09:10:53;;;;;;;;;;;12.60;99.90;;;;;;5033043;28;20007;-69
2022/11/16 09:13:18;;;;;;;;;;;12.50;99.90;;;;;;5032938;28;19917;-69
2022/11/16 09:15:44;;;;;;;;;;;12.50;99.90;;;;;;5033047;28;19913;-69
2022/11/16 09:18:10;;;;;;;;;;;12.40;99.90;;;;;;5032964;28;19924;-69
2022/11/16 09:20:36;;;;;;;;;;;12.40;99.90;;;;;;5031632;28;19917;-70
2022/11/16 09:23:01;;;;;;;;;;;12.30;99.90;;;;;;5031323;28;20335;-71
2022/11/16 09:25:27;;;;;;;;;;;12.20;99.90;;;;;;5032917;28;20262;-72
2022/11/16 09:27:53;;;;;;;;;;;12.20;99.90;;;;;;5032563;28;20310;-68
2022/11/16 09:30:20;;;;;;;;;;;12.10;99.90;;;;;;5031280;28;20332;-70
2022/11/16 09:32:45;;;;;;;;;;;12.10;99.90;;;;;;5032593;28;19913;-69
2022/11/16 09:35:11;;;;;;;;;;;12.10;99.90;;;;;;5032761;28;20021;-69
2022/11/16 09:37:37;;;;;;;;;;;12.10;99.90;;;;;;5031873;28;20405;-69
2022/11/16 09:40:03;;;;;;;;;;;12.10;99.90;;;;;;5031215;28;19913;-72
2022/11/16 09:42:41;;;;;;;;;;;12.10;99.90;;;;;;5033405;28;19917;-68
2022/11/16 09:45:30;;;;;;;;;;;12.10;99.90;;;;;;5033140;28;19920;-71
2022/11/16 09:47:58;;;;;;;;;;;12.10;99.90;;;;;;5022481;28;19913;-71
2022/11/16 09:50:36;;;;;;;;;;;12.10;99.90;;;;;;5033529;28;19936;-70
2022/11/16 09:53:11;;;;;;;;;;;12.10;99.90;;;;;;5033072;28;19917;-69
2022/11/16 09:55:46;;;;;;;;;;;12.10;99.90;;;;;;5032930;28;19924;-69
2022/11/16 09:58:13;;;;;;;;;;;12.20;99.90;;;;;;5031332;28;20396;-68
2022/11/16 10:00:42;;;;;;;;;;;12.20;99.90;;;;;;5030789;28;19913;-70
2022/11/16 10:03:12;;;;;;;;;;;12.20;99.90;;;;;;5031182;28;20257;-70
2022/11/16 10:05:42;;;;;;;;;;;12.30;99.90;;;;;;5028716;28;19921;-70
2022/11/16 10:08:34;;;;;;;;;;;12.30;99.90;;;;;;5031033;28;19925;-70
2022/11/16 10:11:07;;;;;;;;;;;12.30;99.90;;;;;;5031077;28;20329;-70
2022/11/16 10:13:52;;;;;;;;;;;12.30;99.90;;;;;;5030964;28;19924;-70
2022/11/16 10:16:20;;;;;;;;;;;12.30;99.90;;;;;;5032073;28;19917;-70
2022/11/16 10:18:49;;;;;;;;;;;12.40;99.90;;;;;;5031898;28;19925;-70
2022/11/16 10:21:24;;;;;;;;;;;12.40;99.90;;;;;;5031533;28;19948;-70
2022/11/16 10:23:53;;;;;;;;;;;12.40;99.90;;;;;;5032555;28;19920;-70
2022/11/16 10:26:39;;;;;;;;;;;12.40;99.90;;;;;;5031752;28;20194;-70
2022/11/16 10:29:09;;;;;;;;;;;12.50;99.90;;;;;;5031819;28;19999;-70
2022/11/16 10:31:53;;;;;;;;;;;12.50;99.90;;;;;;5031923;28;19913;-70
2022/11/16 10:34:23;;;;;;;;;;;12.50;99.90;;;;;;5031799;28;20297;-70
2022/11/16 10:36:49;;;;;;;;;;;12.50;99.90;;;;;;5031335;28;19913;-70
2022/11/16 10:39:16;;;;;;;;;;;12.50;99.90;;;;;;5031789;28;19955;-70
2022/11/16 10:41:47;;;;;;;;;;;12.50;99.90;;;;;;5032066;28;20378;-70
2022/11/16 10:44:16;;;;;;;;;;;12.60;99.90;;;;;;5031889;28;20290;-70
2022/11/16 10:46:45;;;;;;;;;;;12.60;99.90;;;;;;5030336;28;20297;-70
2022/11/16 10:49:21;;;;;;;;;;;12.60;99.90;;;;;;5031502;28;19924;-70
2022/11/16 10:51:47;;;;;;;;;;;12.60;99.90;;;;;;5031328;28;20004;-70
2022/11/16 10:54:13;;;;;;;;;;;12.60;99.90;;;;;;5031397;28;20019;-70
2022/11/16 10:56:41;;;;;;;;;;;12.60;99.90;;;;;;5031505;28;19996;-70
2022/11/16 10:59:11;;;;;;;;;;;12.50;99.90;;;;;;5031709;28;20107;-71
2022/11/16 11:01:42;;;;;;;;;;;12.60;99.90;;;;;;5031862;28;19913;-70
2022/11/16 11:04:27;;;;;;;;;;;12.50;99.90;;;;;;5032197;28;20337;-71
2022/11/16 11:06:54;;;;;;;;;;;12.60;99.90;;;;;;5030700;28;20303;-70
2022/11/16 11:09:20;;;;;;;;;;;12.60;99.90;;;;;;5015076;28;19913;-69
2022/11/16 11:14:57;;;;;;;;;;;12.60;99.90;;;;;;5028624;28;20377;-70
2022/11/16 11:17:25;;;;;;;;;;;12.60;99.90;;;;;;5031329;28;19967;-70
2022/11/16 11:20:14;;;;;;;;;;;12.70;99.90;;;;;;5030891;28;19916;-70
2022/11/16 11:22:42;;;;;;;;;;;12.70;99.90;;;;;;5013025;28;20384;-70
2022/11/16 11:25:22;;;;;;;;;;;12.70;99.90;;;;;;5030987;28;19913;-70
2022/11/16 11:27:49;;;;;;;;;;;12.70;99.90;;;;;;5014069;28;19917;-70
2022/11/16 11:30:19;;;;;;;;;;;12.70;99.90;;;;;;5014950;28;19924;-70
2022/11/16 11:32:45;;;;;;;;;;;12.70;99.90;;;;;;5030571;28;19959;-70
2022/11/16 11:35:30;;;;;;;;;;;12.80;99.90;;;;;;5031758;28;20385;-70
2022/11/16 11:37:58;;;;;;;;;;;12.80;99.90;;;;;;5030259;28;19913;-70
2022/11/16 11:40:30;;;;;;;;;;;12.80;99.90;;;;;;5031290;28;20016;-71
2022/11/16 11:43:00;;;;;;;;;;;12.80;99.90;;;;;;5031110;28;19952;-68
2022/11/16 11:45:44;;;;;;;;;;;12.80;99.90;;;;;;5029896;28;19927;-69
2022/11/16 11:48:10;;;;;;;;;;;12.90;99.90;;;;;;5030951;28;19945;-68
2022/11/16 11:50:53;;;;;;;;;;;12.90;99.90;;;;;;5006979;28;19917;-68
2022/11/16 11:53:19;;;;;;;;;;;12.90;99.90;;;;;;5028468;28;19917;-68
2022/11/16 11:55:45;;;;;;;;;;;12.90;99.90;;;;;;5030784;28;20243;-68
2022/11/16 11:58:14;;;;;;;;;;;12.90;99.90;;;;;;5013036;28;19952;-68
2022/11/16 12:00:51;;;;;;;;;;;12.80;99.90;;;;;;5030690;28;19920;-70
2022/11/16 15:42:59;;;;;;;6.55;1.30;;;29.30;67.40;;;;;;5085971;27;20159;-48
2022/11/16 15:45:26;;;;;;;4.35;1.20;;;25.10;78.80;;;;;;5084678;27;20087;-51
2022/11/16 15:47:52;;;;;;;5.68;1.30;;;23.30;87.20;;;;;;5085384;27;20043;-48
2022/11/16 15:50:22;;;;;;;6.57;1.27;;;22.30;92.20;;;;;;5085740;27;20028;-54
2022/11/16 16:01:08;;;;;;;8.02;2.10;;;18.40;82.10;;;;;;5073208;27;20532;-56
2022/11/16 16:03:35;;;;;;;4.90;1.70;;;17.20;88.10;;;;;;5045520;28;20135;-58
2022/11/16 16:06:01;;;;;;;5.45;1.48;;;15.60;92.30;;;;;;5045951;28;20150;-54
2022/11/16 16:08:32;;;;;;;5.88;1.60;;;14.40;96.40;;;;;;5048095;28;20419;-61
2022/11/16 16:11:04;;;;;;;4.70;1.40;;;13.70;99.50;;;;;;5047807;22;20383;-55
2022/11/16 16:13:36;;;;;;;4.78;1.45;;;13.10;99.90;;;;;;5026403;28;20030;-54
2022/11/16 16:16:28;;;;;;;8.30;1.58;;;12.50;99.90;;;;;;5026139;28;20185;-55
2022/11/16 16:18:59;;;;;;;5.80;1.67;;;12.20;99.90;;;;;;5007948;28;20080;-53
2022/11/16 16:21:40;;;;;;;7.60;1.63;;;12.00;99.90;;;;;;4986117;28;20035;-54
2022/11/16 16:24:08;;;;;;;5.72;1.80;;;11.80;99.90;;;;;;4986760;28;20467;-52
2022/11/16 16:26:34;;;;;;;4.40;1.10;;;11.60;99.90;;;;;;4986147;28;20027;-54
2022/11/16 16:29:00;;;;;;;5.72;2.10;;;11.50;99.90;;;;;;4992620;28;20552;-56
2022/11/16 16:31:26;;;;;;;6.68;1.55;;;11.30;99.90;;;;;;5006156;28;20038;-52
2022/11/16 16:33:51;;;;;;;5.53;1.63;;;11.20;99.90;;;;;;5006265;28;20030;-56
2022/11/16 16:36:17;;;;;;;5.13;1.77;;;11.10;99.90;;;;;;5005240;28;20064;-52
2022/11/16 16:38:43;;;;;;;6.07;1.53;;;11.00;99.90;;;;;;5005397;28;20045;-54
2022/11/16 16:41:17;;;;;;;6.33;1.60;;;10.90;99.90;;;;;;5005844;28;20038;-53
2022/11/16 16:43:42;;;;;;;8.63;1.40;;;10.80;99.90;;;;;;5006288;28;20176;-52
2022/11/16 16:46:10;;;;;;;6.27;1.70;;;10.80;99.90;;;;;;5005776;28;20771;-53
2022/11/16 16:48:36;;;;;;;6.30;1.70;;;10.80;99.90;;;;;;5004689;28;20049;-54
2022/11/16 16:51:02;;;;;;;5.13;1.63;;;10.80;99.90;;;;;;5004922;28;20042;-55
2022/11/16 16:53:28;;;;;;;5.37;1.50;;;10.70;99.90;;;;;;5005762;28;20030;-54
2022/11/16 16:55:53;;;;;;;7.47;1.60;;;10.70;99.90;;;;;;5005906;28;20081;-53
2022/11/16 16:58:19;;;;;;;7.17;1.90;;;10.60;99.90;;;;;;5005430;28;20030;-54
2022/11/16 17:00:45;;;;;;;7.80;2.27;;;10.60;99.90;;;;;;5004796;28;20064;-53
2022/11/16 17:03:10;;;;;;;6.30;1.90;;;10.60;99.90;;;;;;5005033;28;20443;-53
2022/11/16 17:05:37;;;;;;;7.00;2.10;;;10.60;99.90;;;;;;5004818;28;20030;-53
2022/11/16 17:08:02;;;;;;;11.20;2.27;;;10.60;99.90;;;;;;5004259;28;20267;-55
2022/11/16 17:10:28;;;;;;;6.83;2.20;;;10.60;99.90;;;;;;5001582;28;20120;-52
2022/11/16 17:12:55;;;;;;;5.03;2.03;;;10.60;99.90;;;;;;5008736;28;20038;-52
2022/11/16 17:15:21;;;;;;;14.90;2.60;;;10.60;99.90;;;;;;5010683;28;20167;-53
2022/11/16 17:17:46;;;;;;;7.33;1.90;;;10.50;99.90;;;;;;5010959;28;20034;-53
2022/11/16 17:20:13;;;;;;;10.90;2.80;;;10.40;99.90;;;;;;5011635;28;20350;-54
2022/11/16 17:22:40;;;;;;;6.43;2.33;;;10.30;99.90;;;;;;5009381;28;20042;-54
2022/11/16 17:25:07;;;;;;;10.93;2.73;;;10.30;99.90;;;;;;5011254;28;20041;-54
2022/11/16 17:27:33;;;;;;;7.30;2.30;;;10.20;99.90;;;;;;5011263;28;20038;-53
2022/11/16 17:29:59;;;;;;;8.40;2.93;;;10.20;99.90;;;;;;5011265;28;20501;-54
2022/11/16 17:32:25;;;;;;;6.83;2.50;;;10.20;99.90;;;;;;5010481;28;20430;-55
2022/11/16 17:34:51;;;;;;;6.53;2.40;;;10.20;99.90;;;;;;5011076;28;20037;-54
2022/11/16 17:37:16;;;;;;;10.50;2.87;;;10.20;99.90;;;;;;5009578;28;20529;-54
2022/11/16 17:39:42;;;;;;;8.87;2.40;;;10.20;99.90;;;;;;5011247;28;20034;-55
2022/11/16 17:42:08;;;;;;;10.87;2.50;;;10.30;99.90;;;;;;5010046;28;20029;-55
2022/11/16 17:44:34;;;;;;;10.00;2.27;;;10.30;99.90;;;;;;5010295;28;20541;-56
2022/11/16 17:47:00;;;;;;;10.40;2.43;;;10.30;99.90;;;;;;5009377;28;20156;-53
2022/11/16 17:49:25;;;;;;;8.30;2.47;;;10.30;99.90;;;;;;5009040;28;20030;-53
2022/11/16 17:51:51;;;;;;;8.17;2.30;;;10.30;99.90;;;;;;5009276;28;20133;-49
2022/11/16 17:54:17;;;;;;;9.90;2.40;;;10.30;99.90;;;;;;5007554;28;82751;-54
2022/11/16 17:57:29;;;;;;;8.30;2.43;;;10.30;99.90;;;;;;5056544;28;20730;-51
2022/11/16 17:59:55;;;;;;;12.77;2.60;;;10.30;99.90;;;;;;5042832;28;20504;-53
2022/11/16 18:04:37;;;;;;;5.90;2.60;;;10.30;99.90;;;;;;5057746;27;20616;-52
2022/11/16 18:07:03;;;;;;;8.13;2.50;;;10.20;99.90;;;;;;5037826;28;20049;-50
2022/11/16 18:09:29;;;;;;;6.50;2.10;;;10.20;99.90;;;;;;5037933;28;96009;-54
2022/11/16 18:12:09;;;;;;;9.17;2.40;;;10.20;99.90;;;;;;5066398;28;20617;-57
2022/11/16 18:14:35;;;;;;;7.17;2.47;;;10.00;99.90;;;;;;5065626;28;20138;-52
2022/11/16 18:17:01;;;;;;;6.57;2.60;;;10.10;99.90;;;;;;5065421;28;20032;-52
2022/11/16 18:19:26;;;;;;;9.37;2.13;;;10.10;99.90;;;;;;5062985;28;20076;-52
2022/11/16 18:21:52;;;;;;;12.67;3.07;;;10.10;99.90;;;;;;5056494;28;20029;-49
2022/11/16 18:24:18;;;;;;;7.73;2.00;;;10.10;99.90;;;;;;5055274;28;20116;-51
2022/11/16 18:26:43;;;;;;;9.13;2.57;;;10.00;99.90;;;;;;5055038;28;20043;-52
2022/11/16 18:29:11;;;;;;;8.47;1.93;;;10.10;99.90;;;;;;5048209;28;20030;-53
2022/11/16 18:31:37;;;;;;;8.43;2.27;;;10.10;99.90;;;;;;5056579;28;20043;-52
2022/11/16 18:34:03;;;;;;;8.03;2.67;;;10.10;99.90;;;;;;5054486;28;20121;-54
2022/11/16 18:36:28;;;;;;;17.77;8.83;;;10.10;99.90;;;;;;5054694;28;20100;-53
2022/11/16 18:38:54;;;;;;;14.03;4.03;;;10.10;99.90;;;;;;5056375;28;20025;-53